sensor_id;sensor_type;location;lat;lon;timestamp;P1;durP1;ratioP1;P2;durP2;ratioP2
2548;SDS011;1284;53.520;10.248;2024-02-16T03:33:14;8.35;;;2.03;;
2548;SDS011;1284;53.520;10.248;2024-02-16T03:35:40;2.70;;;1.45;;
2548;SDS011;1284;53.520;10.248;2024-02-16T03:38:05;2.67;;;1.58;;
2548;SDS011;1284;53.520;10.248;2024-02-16T03:40:31;13.25;;;2.10;;
2548;SDS011;1284;53.520;10.248;2024-02-16T03:42:57;2.47;;;1.67;;
2548;SDS011;1284;53.520;10.248;2024-02-16T03:45:23;3.30;;;1.73;;
2548;SDS011;1284;53.520;10.248;2024-02-16T03:47:49;6.55;;;1.67;;
2548;SDS011;1284;53.520;10.248;2024-02-16T03:50:18;2.72;;;1.50;;
2548;SDS011;1284;53.520;10.248;2024-02-16T03:52:44;2.53;;;1.60;;
2548;SDS011;1284;53.520;10.248;2024-02-16T03:55:09;6.75;;;2.15;;
2548;SDS011;1284;53.520;10.248;2024-02-16T03:57:35;6.90;;;2.25;;
2548;SDS011;1284;53.520;10.248;2024-02-16T04:00:01;5.28;;;1.45;;
2548;SDS011;1284;53.520;10.248;2024-02-16T04:02:37;2.83;;;1.45;;
2548;SDS011;1284;53.520;10.248;2024-02-16T04:05:04;9.52;;;1.45;;
2548;SDS011;1284;53.520;10.248;2024-02-16T04:07:32;2.13;;;1.52;;
2548;SDS011;1284;53.520;10.248;2024-02-16T04:09:57;4.63;;;1.90;;
2548;SDS011;1284;53.520;10.248;2024-02-16T04:12:23;3.45;;;1.75;;
2548;SDS011;1284;53.520;10.248;2024-02-16T04:14:55;10.38;;;1.40;;
2548;SDS011;1284;53.520;10.248;2024-02-16T04:17:24;3.05;;;1.70;;
2548;SDS011;1284;53.520;10.248;2024-02-16T04:19:50;7.85;;;1.73;;
2548;SDS011;1284;53.520;10.248;2024-02-16T04:22:15;1.48;;;1.23;;
2548;SDS011;1284;53.520;10.248;2024-02-16T04:24:41;2.80;;;1.60;;
2548;SDS011;1284;53.520;10.248;2024-02-16T04:27:06;3.20;;;1.60;;
2548;SDS011;1284;53.520;10.248;2024-02-16T04:29:32;3.42;;;1.95;;
2548;SDS011;1284;53.520;10.248;2024-02-16T04:31:57;2.63;;;1.70;;
2548;SDS011;1284;53.520;10.248;2024-02-16T04:34:23;3.22;;;1.33;;
2548;SDS011;1284;53.520;10.248;2024-02-16T04:36:48;3.00;;;1.60;;
2548;SDS011;1284;53.520;10.248;2024-02-16T04:39:20;2.20;;;1.65;;
2548;SDS011;1284;53.520;10.248;2024-02-16T04:41:48;10.98;;;1.55;;
2548;SDS011;1284;53.520;10.248;2024-02-16T04:44:14;2.22;;;1.42;;
2548;SDS011;1284;53.520;10.248;2024-02-16T04:46:39;2.13;;;1.58;;
2548;SDS011;1284;53.520;10.248;2024-02-16T04:49:05;7.25;;;1.50;;
2548;SDS011;1284;53.520;10.248;2024-02-16T04:51:31;3.53;;;1.50;;
2548;SDS011;1284;53.520;10.248;2024-02-16T04:53:57;2.22;;;1.42;;
2548;SDS011;1284;53.520;10.248;2024-02-16T04:56:23;5.97;;;1.33;;
2548;SDS011;1284;53.520;10.248;2024-02-16T04:58:48;1.83;;;1.40;;
2548;SDS011;1284;53.520;10.248;2024-02-16T05:01:14;3.60;;;1.58;;
2548;SDS011;1284;53.520;10.248;2024-02-16T05:03:39;3.35;;;1.15;;
2548;SDS011;1284;53.520;10.248;2024-02-16T05:06:06;5.38;;;1.20;;
2548;SDS011;1284;53.520;10.248;2024-02-16T05:08:32;5.05;;;1.60;;
2548;SDS011;1284;53.520;10.248;2024-02-16T05:10:57;3.47;;;1.45;;
2548;SDS011;1284;53.520;10.248;2024-02-16T05:13:22;2.20;;;1.40;;
2548;SDS011;1284;53.520;10.248;2024-02-16T05:15:49;2.53;;;1.60;;
2548;SDS011;1284;53.520;10.248;2024-02-16T05:18:15;3.33;;;1.52;;
2548;SDS011;1284;53.520;10.248;2024-02-16T05:20:40;1.58;;;1.10;;
2548;SDS011;1284;53.520;10.248;2024-02-16T05:23:06;2.10;;;1.77;;
2548;SDS011;1284;53.520;10.248;2024-02-16T05:25:31;6.90;;;1.33;;
2548;SDS011;1284;53.520;10.248;2024-02-16T05:27:56;3.42;;;1.58;;
2548;SDS011;1284;53.520;10.248;2024-02-16T05:30:22;3.95;;;1.80;;
2548;SDS011;1284;53.520;10.248;2024-02-16T05:32:47;10.18;;;2.03;;
2548;SDS011;1284;53.520;10.248;2024-02-16T05:35:14;4.25;;;1.83;;
2548;SDS011;1284;53.520;10.248;2024-02-16T05:37:42;3.35;;;1.85;;
2548;SDS011;1284;53.520;10.248;2024-02-16T05:40:10;3.83;;;2.13;;
2548;SDS011;1284;53.520;10.248;2024-02-16T05:42:53;5.10;;;2.33;;
2548;SDS011;1284;53.520;10.248;2024-02-16T05:45:26;2.65;;;1.98;;
2548;SDS011;1284;53.520;10.248;2024-02-16T05:47:51;3.65;;;2.00;;
2548;SDS011;1284;53.520;10.248;2024-02-16T14:42:39;3.15;;;1.48;;
2548;SDS011;1284;53.520;10.248;2024-02-16T14:45:25;2.95;;;1.58;;
2548;SDS011;1284;53.520;10.248;2024-02-16T14:48:33;7.05;;;1.40;;
2548;SDS011;1284;53.520;10.248;2024-02-16T14:51:08;4.15;;;1.52;;
2548;SDS011;1284;53.520;10.248;2024-02-16T14:53:42;5.10;;;1.80;;
2548;SDS011;1284;53.520;10.248;2024-02-16T14:56:16;2.83;;;1.38;;
2548;SDS011;1284;53.520;10.248;2024-02-16T14:58:55;5.20;;;1.80;;
2548;SDS011;1284;53.520;10.248;2024-02-16T15:01:42;4.00;;;1.70;;
2548;SDS011;1284;53.520;10.248;2024-02-16T15:04:16;4.85;;;1.60;;
2548;SDS011;1284;53.520;10.248;2024-02-16T15:07:09;1.85;;;1.13;;
2548;SDS011;1284;53.520;10.248;2024-02-16T15:09:51;2.60;;;1.50;;
2548;SDS011;1284;53.520;10.248;2024-02-16T15:16:20;3.92;;;1.80;;
2548;SDS011;1284;53.520;10.248;2024-02-16T15:25:33;3.80;;;1.73;;
2548;SDS011;1284;53.520;10.248;2024-02-16T15:29:26;2.05;;;1.50;;
2548;SDS011;1284;53.520;10.248;2024-02-16T15:31:52;6.28;;;1.83;;
2548;SDS011;1284;53.520;10.248;2024-02-16T15:34:20;3.30;;;1.98;;
2548;SDS011;1284;53.520;10.248;2024-02-16T15:36:49;3.80;;;2.05;;
2548;SDS011;1284;53.520;10.248;2024-02-16T15:39:20;5.25;;;1.88;;
2548;SDS011;1284;53.520;10.248;2024-02-16T15:41:45;2.35;;;1.75;;
2548;SDS011;1284;53.520;10.248;2024-02-16T15:44:12;3.50;;;2.17;;
2548;SDS011;1284;53.520;10.248;2024-02-16T15:46:37;7.63;;;2.50;;
2548;SDS011;1284;53.520;10.248;2024-02-16T15:49:13;6.43;;;1.88;;
2548;SDS011;1284;53.520;10.248;2024-02-16T15:51:38;5.38;;;2.28;;
2548;SDS011;1284;53.520;10.248;2024-02-16T15:54:12;2.83;;;1.90;;
2548;SDS011;1284;53.520;10.248;2024-02-16T15:56:51;4.80;;;2.20;;
2548;SDS011;1284;53.520;10.248;2024-02-16T15:59:45;4.25;;;1.80;;
2548;SDS011;1284;53.520;10.248;2024-02-16T16:02:10;4.43;;;1.95;;
2548;SDS011;1284;53.520;10.248;2024-02-16T16:04:36;6.43;;;3.10;;
2548;SDS011;1284;53.520;10.248;2024-02-16T16:07:01;5.25;;;2.63;;
2548;SDS011;1284;53.520;10.248;2024-02-16T16:09:27;5.80;;;2.83;;
2548;SDS011;1284;53.520;10.248;2024-02-16T16:11:53;4.57;;;2.58;;
2548;SDS011;1284;53.520;10.248;2024-02-16T16:14:18;5.38;;;2.85;;
2548;SDS011;1284;53.520;10.248;2024-02-16T16:16:46;4.15;;;2.42;;
2548;SDS011;1284;53.520;10.248;2024-02-16T16:19:30;6.47;;;2.78;;
2548;SDS011;1284;53.520;10.248;2024-02-16T16:21:57;3.60;;;2.65;;
2548;SDS011;1284;53.520;10.248;2024-02-16T16:24:24;5.63;;;2.58;;
2548;SDS011;1284;53.520;10.248;2024-02-16T16:29:45;4.45;;;2.92;;
2548;SDS011;1284;53.520;10.248;2024-02-16T16:32:11;5.13;;;2.83;;
2548;SDS011;1284;53.520;10.248;2024-02-16T16:34:44;5.45;;;2.20;;
2548;SDS011;1284;53.520;10.248;2024-02-16T16:37:10;3.95;;;1.98;;
2548;SDS011;1284;53.520;10.248;2024-02-16T16:39:36;3.15;;;2.35;;
2548;SDS011;1284;53.520;10.248;2024-02-16T16:45:39;3.60;;;1.88;;
2548;SDS011;1284;53.520;10.248;2024-02-16T16:48:04;3.33;;;1.70;;
2548;SDS011;1284;53.520;10.248;2024-02-16T16:50:30;3.85;;;1.95;;
2548;SDS011;1284;53.520;10.248;2024-02-16T16:52:58;2.33;;;1.73;;
2548;SDS011;1284;53.520;10.248;2024-02-16T16:55:27;3.50;;;2.00;;
2548;SDS011;1284;53.520;10.248;2024-02-16T16:58:10;2.00;;;1.40;;
2548;SDS011;1284;53.520;10.248;2024-02-16T17:00:46;2.58;;;1.45;;
2548;SDS011;1284;53.520;10.248;2024-02-16T17:04:04;1.98;;;1.48;;
2548;SDS011;1284;53.520;10.248;2024-02-16T17:07:15;4.57;;;2.10;;
2548;SDS011;1284;53.520;10.248;2024-02-16T17:10:05;3.03;;;1.92;;
2548;SDS011;1284;53.520;10.248;2024-02-16T17:13:12;2.47;;;1.75;;
2548;SDS011;1284;53.520;10.248;2024-02-16T17:15:51;3.40;;;2.10;;
2548;SDS011;1284;53.520;10.248;2024-02-16T17:18:22;2.78;;;1.98;;
2548;SDS011;1284;53.520;10.248;2024-02-16T17:20:53;3.45;;;2.30;;
2548;SDS011;1284;53.520;10.248;2024-02-16T17:23:41;3.65;;;2.13;;
2548;SDS011;1284;53.520;10.248;2024-02-16T17:26:15;3.28;;;2.10;;
2548;SDS011;1284;53.520;10.248;2024-02-16T17:40:17;2.78;;;1.75;;
2548;SDS011;1284;53.520;10.248;2024-02-16T17:42:43;3.05;;;1.90;;
2548;SDS011;1284;53.520;10.248;2024-02-16T17:49:07;1.77;;;1.30;;
2548;SDS011;1284;53.520;10.248;2024-02-16T18:06:33;2.70;;;1.23;;
2548;SDS011;1284;53.520;10.248;2024-02-16T18:26:14;1.42;;;1.10;;
2548;SDS011;1284;53.520;10.248;2024-02-16T18:29:34;1.42;;;1.08;;
2548;SDS011;1284;53.520;10.248;2024-02-16T18:33:01;1.70;;;1.10;;
2548;SDS011;1284;53.520;10.248;2024-02-16T18:50:20;1.05;;;0.95;;
2548;SDS011;1284;53.520;10.248;2024-02-16T18:56:50;3.72;;;1.73;;
2548;SDS011;1284;53.520;10.248;2024-02-16T18:59:16;1.38;;;0.98;;
2548;SDS011;1284;53.520;10.248;2024-02-16T19:35:37;5.90;;;2.13;;
2548;SDS011;1284;53.520;10.248;2024-02-16T19:38:48;4.68;;;1.98;;
2548;SDS011;1284;53.520;10.248;2024-02-16T19:42:26;2.55;;;1.67;;
2548;SDS011;1284;53.520;10.248;2024-02-16T19:45:49;2.97;;;1.45;;
2548;SDS011;1284;53.520;10.248;2024-02-16T19:49:12;2.33;;;1.75;;
2548;SDS011;1284;53.520;10.248;2024-02-16T20:17:35;3.60;;;2.22;;
2548;SDS011;1284;53.520;10.248;2024-02-16T20:35:30;3.13;;;1.83;;
2548;SDS011;1284;53.520;10.248;2024-02-16T20:55:32;5.30;;;2.78;;
2548;SDS011;1284;53.520;10.248;2024-02-16T20:57:58;10.02;;;4.97;;
2548;SDS011;1284;53.520;10.248;2024-02-16T21:00:53;4.82;;;2.70;;
2548;SDS011;1284;53.520;10.248;2024-02-16T21:03:50;6.43;;;3.03;;
2548;SDS011;1284;53.520;10.248;2024-02-16T21:07:19;6.32;;;2.95;;
2548;SDS011;1284;53.520;10.248;2024-02-16T21:09:49;6.10;;;2.65;;
2548;SDS011;1284;53.520;10.248;2024-02-16T21:17:06;6.28;;;3.10;;
2548;SDS011;1284;53.520;10.248;2024-02-16T21:20:37;9.63;;;3.78;;
2548;SDS011;1284;53.520;10.248;2024-02-16T21:23:33;7.05;;;3.50;;
2548;SDS011;1284;53.520;10.248;2024-02-16T21:25:59;7.03;;;3.20;;
2548;SDS011;1284;53.520;10.248;2024-02-16T21:29:02;6.97;;;3.15;;
2548;SDS011;1284;53.520;10.248;2024-02-16T21:32:14;7.53;;;3.33;;
2548;SDS011;1284;53.520;10.248;2024-02-16T21:39:16;8.93;;;3.10;;
2548;SDS011;1284;53.520;10.248;2024-02-16T22:43:35;4.40;;;2.50;;
2548;SDS011;1284;53.520;10.248;2024-02-16T22:46:01;11.38;;;2.80;;
2548;SDS011;1284;53.520;10.248;2024-02-16T22:48:45;4.65;;;2.25;;
2548;SDS011;1284;53.520;10.248;2024-02-16T23:02:40;4.20;;;1.90;;
2548;SDS011;1284;53.520;10.248;2024-02-16T23:08:07;3.67;;;2.15;;
2548;SDS011;1284;53.520;10.248;2024-02-16T23:14:23;4.65;;;2.33;;
2548;SDS011;1284;53.520;10.248;2024-02-16T23:16:51;3.70;;;2.25;;
2548;SDS011;1284;53.520;10.248;2024-02-16T23:19:26;4.93;;;2.25;;
2548;SDS011;1284;53.520;10.248;2024-02-16T23:28:27;5.82;;;2.42;;
2548;SDS011;1284;53.520;10.248;2024-02-16T23:31:29;6.05;;;2.38;;
2548;SDS011;1284;53.520;10.248;2024-02-16T23:34:17;4.18;;;2.47;;
2548;SDS011;1284;53.520;10.248;2024-02-16T23:36:57;3.80;;;2.03;;
2548;SDS011;1284;53.520;10.248;2024-02-16T23:40:08;4.72;;;2.63;;
2548;SDS011;1284;53.520;10.248;2024-02-16T23:42:58;4.75;;;2.17;;
2548;SDS011;1284;53.520;10.248;2024-02-16T23:45:26;5.13;;;1.95;;
2548;SDS011;1284;53.520;10.248;2024-02-16T23:48:11;6.05;;;2.90;;
2548;SDS011;1284;53.520;10.248;2024-02-16T23:50:48;7.85;;;2.65;;
2548;SDS011;1284;53.520;10.248;2024-02-16T23:53:47;7.85;;;2.95;;
2548;SDS011;1284;53.520;10.248;2024-02-16T23:59:55;6.65;;;2.70;;
